Airfield :
LOGIN :

Register | Disclaimer

   EN    FR    IT 

 










Legend :    VFR   Marginal VFR   IFR   Intensive IFR   Very Intensive IFR
Visi :
Ceiling :
>= 8 km
>= 3000ft
5 to 8 km
1000 to 3000 ft
1500m to 5 km
500 to 1000 ft
800 to 1500m
200 to 500 ft
< 800m
< 200 ft
Symbols :   Thunderstorms  Fog  Heavy snow  Heavy precipitations  Wind > 20 kt
SIGMETs :     Misc.  Thunderstorms  Icing  Turbulence  Mountain Waves  Volcanic Ashes






- Airport Elevation : 195 ft


LFMY - Salon de Provence

CURRENT METAR :
  • 050830Z AUTO 30007KT 260V330 CAVOK 22/14 Q1013 NOSIG

EXPIRED METARs :
  • 050800Z AUTO 28006KT 240V330 CAVOK 21/14 Q1013 NOSIG
  • 050730Z AUTO 29007KT 260V320 CAVOK 20/14 Q1013 NOSIG
  • 050700Z AUTO 28003KT 250V350 CAVOK 19/14 Q1013 NOSIG
  • 050630Z AUTO VRB03KT CAVOK 18/14 Q1013 NOSIG
  • 050600Z AUTO VRB02KT CAVOK 17/14 Q1013 NOSIG

TAF TAF LFMY
Valid from the 05 at 09:00 until the 06 at 09:00 UTC


050800Z 0509/0609 27012KT CAVOK TX29/0513Z TN14/0604Z
BECMG 0519/0521 VRB02KT



MET'MAP, your aeronautical weather chart ! - Copyright ORBIFLY December 2007 - Disclaimer

ORBIFLY MET'MAP TEAM :

Programming & Development : Alexandra Zaïnal
Concept & original design : Baudouin d'Aumeries
Assistance for programming : Marc-Olivier Méhu
Technical & hardware support : Manuel Goepfert

Contact : metmap@orbifly.com




SOURCES & CREDITS :

   NOAA